Portada
METAR-TAF:

METAR-TAF

Aeropuertos :

Aeropuerto de Valencia

Valencia, España

latitud: 39-30N, longitud: 000-28W, altitud: 69 m

Observación

El informe se hizo hace 32 minutos, a las 22:30 UTC
Viento 10 kt del este-noreste
Temperatura 24°C
Humedad 78%
Presión 1019 hPa
Visibilidad 10 km o más
Nubes dispersas a una altura de 2500 ft

METAR: LEVC 172230Z 06010KT 9999 SCT025 24/20 Q1019 NOSIG

Hora: 01:02 (23:02 UTC)

Pronóstico

El informe se hizo hace 31 minutos, a las 22:31 UTC
Pronóstico válido del 17 a las 22 UTC al 18 a las 18 UTC
Viento 10 kt del este-noreste
Visibilidad 10 km o más
Nubes dispersas a una altura de 2500 ft
Temporalmente
del 17 a las 22 UTC al 18 a las 09 UTC
Viento 3 kt con dirección variable
Evolucionando progresivamente
del 18 a las 10 UTC al 18 a las 12 UTC
Viento 10 kt del este-sureste

TAF: LEVC 172231Z 1722/1818 07010KT 9999 SCT025 TX27/1812Z TN21/1805Z TEMPO 1722/1809 VRB03KT BECMG 1810/1812 11010KT

Observaciones y pronósticos meteorológicos de más de 4000 aeropuertos (mensajes METAR y TAF).

Los puntos amarillos y rojos representan las estaciones disponibles.

Ponga el ratón en el punto deseado para ver el nombre de la estación.

Haga clic para ver las observaciones y los pronósticos meteorológicos.

Para cambiar el mapa : haga clic en los botones verdes con una cruz de color negro para hacer un zoom, en el botón verde con un guión para alejar o en las flechas verdes para mapas adyacentes.


METAR-TAF: